Rhapsody Of The Seas — C6UA2 — position and weather

sailwx.info

Track history (hours):
 
Tides and Currents Weather Stations Pressure Air Temp Water Temp Dewpoint Dewpoint Depression Visibility Wind Speed Wind Dir Waves Ship Positions

Rhapsody Of The Seas

Last reported at 2018-Feb-21 22:37 UTC. Time now 2018-Feb-22 08:46 UTC.
Position N 20°29' W 087°01'.

Type: Passenger vessel. MMSI: 311805000.

Date/timePositionNaut miles runAvg speedWind from/ knotsBaromVisibWave heightAir tempDewpointWater temp
2018-Feb-21 22:37N 20°29' W 087°01'212.9
2018-Feb-21 22:30N 20°29' W 086°59'1 1.2
2018-Feb-21 22:00N 20°29' W 086°59'0 0.0
2018-Feb-21 21:30N 20°29' W 086°59'0 0.0
2018-Feb-21 21:00N 20°29' W 086°59'0 0.0
2018-Feb-21 20:30N 20°29' W 086°59'0 0.0
2018-Feb-21 19:54N 20°29' W 086°59'0 0.0
2018-Feb-21 19:24N 20°29' W 086°59'0 0.0
2018-Feb-21 19:00N 20°29' W 086°59'0 0.0
2018-Feb-21 17:33N 20°29' W 086°59'0 0.0
2018-Feb-21 17:15N 20°29' W 086°59'0 0.0
2018-Feb-21 16:57N 20°29' W 086°59'0 0.0
2018-Feb-21 16:30N 20°29' W 086°59'0 0.0
2018-Feb-21 16:00N 20°29' W 086°59'0 0.0
2018-Feb-21 15:30N 20°29' W 086°59'0 0.0
2018-Feb-21 14:54N 20°29' W 086°59'0 0.0
2018-Feb-21 14:30N 20°29' W 086°59'0 0.0
2018-Feb-21 14:00N 20°29' W 086°59'0 0.0
2018-Feb-21 13:27N 20°29' W 086°59'0 0.0
2018-Feb-21 12:57N 20°29' W 086°59'0 0.0
2018-Feb-21 12:30N 20°29' W 086°59'0 0.0
2018-Feb-21 11:57N 20°29' W 086°59'2 4.2
2018-Feb-21 11:30N 20°31' W 086°59'  
2018-Feb-19 00:29N 27°35' W 083°00'815.6
2018-Feb-19 00:00N 27°36' W 082°52'1016.3
2018-Feb-18 23:22N 27°37' W 082°40'715.6
2018-Feb-18 22:57N 27°41' W 082°35'614.1
2018-Feb-18 22:30N 27°47' W 082°31'612.5
2018-Feb-18 22:00N 27°51' W 082°27'4 8.4
2018-Feb-18 21:30N 27°55' W 082°27'2 3.1
2018-Feb-18 21:00N 27°57' W 082°27'0 0.0
2018-Feb-18 20:30N 27°57' W 082°27'0 0.0
2018-Feb-18 20:00N 27°57' W 082°27'0 0.0
2018-Feb-18 19:30N 27°57' W 082°27'0 0.0
2018-Feb-18 19:00N 27°57' W 082°27'0 0.0
2018-Feb-18 18:30N 27°57' W 082°27'0 0.0
2018-Feb-18 18:00N 27°57' W 082°27'0 0.0
2018-Feb-18 17:30N 27°57' W 082°27'0 0.0
2018-Feb-18 17:00N 27°57' W 082°27'0 0.0
2018-Feb-18 16:27N 27°57' W 082°27'0 0.0
2018-Feb-18 16:00N 27°57' W 082°27'0 0.0
2018-Feb-18 15:30N 27°57' W 082°27'0 0.0
2018-Feb-18 15:00N 27°57' W 082°27'0 0.0
2018-Feb-18 14:30N 27°57' W 082°27'0 0.0
2018-Feb-18 14:00N 27°57' W 082°27'0 0.0
2018-Feb-18 13:30N 27°57' W 082°27'0 0.0
2018-Feb-18 13:00N 27°57' W 082°27'0 0.0
2018-Feb-18 12:30N 27°57' W 082°27'0 0.0
2018-Feb-18 12:00N 27°57' W 082°27'0 0.0
2018-Feb-18 11:30N 27°57' W 082°27'0 0.0
2018-Feb-18 11:00N 27°57' W 082°27'0 0.0
2018-Feb-18 10:30N 27°57' W 082°27'0 0.0
2018-Feb-18 10:00N 27°57' W 082°27'0 0.0
2018-Feb-18 09:30N 27°57' W 082°27'0 0.0
2018-Feb-18 09:00N 27°57' W 082°27'0 0.5
2018-Feb-18 08:30N 27°57' W 082°27'1 2.6
2018-Feb-18 08:00N 27°55' W 082°27'3 6.1
2018-Feb-18 07:30N 27°52' W 082°27'713.1
2018-Feb-18 07:01N 27°47' W 082°31'  
2018-Feb-15 01:17N 20°29' W 087°01'2 6.8
2018-Feb-15 01:00N 20°29' W 086°59'0 0.0
2018-Feb-15 00:26N 20°29' W 086°59'0 0.1
2018-Feb-14 23:59N 20°29' W 086°59'0 0.0
2018-Feb-14 23:29N 20°29' W 086°59'0 0.1
2018-Feb-14 22:59N 20°29' W 086°59'0 0.0
2018-Feb-14 22:29N 20°29' W 086°59'0 0.0
2018-Feb-14 21:59N 20°29' W 086°59'0 0.0
2018-Feb-14 21:23N 20°29' W 086°59'0 0.0
2018-Feb-14 20:56N 20°29' W 086°59'0 0.0
2018-Feb-14 20:29N 20°29' W 086°59'0 0.0
2018-Feb-14 19:59N 20°29' W 086°59'0 0.0
2018-Feb-14 19:29N 20°29' W 086°59'0 0.0
2018-Feb-14 18:59N 20°29' W 086°59'0 0.0
2018-Feb-14 18:29N 20°29' W 086°59'0 0.0
2018-Feb-14 17:59N 20°29' W 086°59'0 0.0
2018-Feb-14 17:29N 20°29' W 086°59'0 0.0
2018-Feb-14 16:56N 20°29' W 086°59'0 0.0
2018-Feb-14 16:29N 20°29' W 086°59'0 0.0
2018-Feb-14 15:56N 20°29' W 086°59'0 0.0
2018-Feb-14 15:29N 20°29' W 086°59'0 0.3
2018-Feb-14 15:00N 20°29' W 086°59'5 9.7
2018-Feb-14 14:30N 20°34' W 086°57'26318.1
2018-Feb-14 00:00N 19°36' W 082°24'482 9.9 070 / 191020.010.8 25.022.221.0
2018-Feb-11 23:11N 27°38' W 082°37'315.1
2018-Feb-11 22:57N 27°41' W 082°35'  
Track history (hours):
 
Tides and Currents Weather Stations Pressure Air Temp Water Temp Dewpoint Dewpoint Depression Visibility Wind Speed Wind Dir Waves Ship Positions

Rhapsody Of The Seas

Last reported at 2018-Feb-21 22:37 UTC. Time now 2018-Feb-22 08:46 UTC.
Position N 20°29' W 087°01'.

Type: Passenger vessel. MMSI: 311805000.

Date/timePositionNaut miles runAvg speedWind from/ knotsBaromVisibWave heightAir tempDewpointWater temp
2018-Feb-21 22:37N 20°29' W 087°01'212.9
2018-Feb-21 22:30N 20°29' W 086°59'1 1.2
2018-Feb-21 22:00N 20°29' W 086°59'0 0.0
2018-Feb-21 21:30N 20°29' W 086°59'0 0.0
2018-Feb-21 21:00N 20°29' W 086°59'0 0.0
2018-Feb-21 20:30N 20°29' W 086°59'0 0.0
2018-Feb-21 19:54N 20°29' W 086°59'0 0.0
2018-Feb-21 19:24N 20°29' W 086°59'0 0.0
2018-Feb-21 19:00N 20°29' W 086°59'0 0.0
2018-Feb-21 17:33N 20°29' W 086°59'0 0.0
2018-Feb-21 17:15N 20°29' W 086°59'0 0.0
2018-Feb-21 16:57N 20°29' W 086°59'0 0.0
2018-Feb-21 16:30N 20°29' W 086°59'0 0.0
2018-Feb-21 16:00N 20°29' W 086°59'0 0.0
2018-Feb-21 15:30N 20°29' W 086°59'0 0.0
2018-Feb-21 14:54N 20°29' W 086°59'0 0.0
2018-Feb-21 14:30N 20°29' W 086°59'0 0.0
2018-Feb-21 14:00N 20°29' W 086°59'0 0.0
2018-Feb-21 13:27N 20°29' W 086°59'0 0.0
2018-Feb-21 12:57N 20°29' W 086°59'0 0.0
2018-Feb-21 12:30N 20°29' W 086°59'0 0.0
2018-Feb-21 11:57N 20°29' W 086°59'2 4.2
2018-Feb-21 11:30N 20°31' W 086°59'  
2018-Feb-19 00:29N 27°35' W 083°00'815.6
2018-Feb-19 00:00N 27°36' W 082°52'1016.3
2018-Feb-18 23:22N 27°37' W 082°40'715.6
2018-Feb-18 22:57N 27°41' W 082°35'614.1
2018-Feb-18 22:30N 27°47' W 082°31'612.5
2018-Feb-18 22:00N 27°51' W 082°27'4 8.4
2018-Feb-18 21:30N 27°55' W 082°27'2 3.1
2018-Feb-18 21:00N 27°57' W 082°27'0 0.0
2018-Feb-18 20:30N 27°57' W 082°27'0 0.0
2018-Feb-18 20:00N 27°57' W 082°27'0 0.0
2018-Feb-18 19:30N 27°57' W 082°27'0 0.0
2018-Feb-18 19:00N 27°57' W 082°27'0 0.0
2018-Feb-18 18:30N 27°57' W 082°27'0 0.0
2018-Feb-18 18:00N 27°57' W 082°27'0 0.0
2018-Feb-18 17:30N 27°57' W 082°27'0 0.0
2018-Feb-18 17:00N 27°57' W 082°27'0 0.0
2018-Feb-18 16:27N 27°57' W 082°27'0 0.0
2018-Feb-18 16:00N 27°57' W 082°27'0 0.0
2018-Feb-18 15:30N 27°57' W 082°27'0 0.0
2018-Feb-18 15:00N 27°57' W 082°27'0 0.0
2018-Feb-18 14:30N 27°57' W 082°27'0 0.0
2018-Feb-18 14:00N 27°57' W 082°27'0 0.0
2018-Feb-18 13:30N 27°57' W 082°27'0 0.0
2018-Feb-18 13:00N 27°57' W 082°27'0 0.0
2018-Feb-18 12:30N 27°57' W 082°27'0 0.0
2018-Feb-18 12:00N 27°57' W 082°27'0 0.0
2018-Feb-18 11:30N 27°57' W 082°27'0 0.0
2018-Feb-18 11:00N 27°57' W 082°27'0 0.0
2018-Feb-18 10:30N 27°57' W 082°27'0 0.0
2018-Feb-18 10:00N 27°57' W 082°27'0 0.0
2018-Feb-18 09:30N 27°57' W 082°27'0 0.0
2018-Feb-18 09:00N 27°57' W 082°27'0 0.5
2018-Feb-18 08:30N 27°57' W 082°27'1 2.6
2018-Feb-18 08:00N 27°55' W 082°27'3 6.1
2018-Feb-18 07:30N 27°52' W 082°27'713.1
2018-Feb-18 07:01N 27°47' W 082°31'  
2018-Feb-15 01:17N 20°29' W 087°01'2 6.8
2018-Feb-15 01:00N 20°29' W 086°59'0 0.0
2018-Feb-15 00:26N 20°29' W 086°59'0 0.1
2018-Feb-14 23:59N 20°29' W 086°59'0 0.0
2018-Feb-14 23:29N 20°29' W 086°59'0 0.1
2018-Feb-14 22:59N 20°29' W 086°59'0 0.0
2018-Feb-14 22:29N 20°29' W 086°59'0 0.0
2018-Feb-14 21:59N 20°29' W 086°59'0 0.0
2018-Feb-14 21:23N 20°29' W 086°59'0 0.0
2018-Feb-14 20:56N 20°29' W 086°59'0 0.0
2018-Feb-14 20:29N 20°29' W 086°59'0 0.0
2018-Feb-14 19:59N 20°29' W 086°59'0 0.0
2018-Feb-14 19:29N 20°29' W 086°59'0 0.0
2018-Feb-14 18:59N 20°29' W 086°59'0 0.0
2018-Feb-14 18:29N 20°29' W 086°59'0 0.0
2018-Feb-14 17:59N 20°29' W 086°59'0 0.0
2018-Feb-14 17:29N 20°29' W 086°59'0 0.0
2018-Feb-14 16:56N 20°29' W 086°59'0 0.0
2018-Feb-14 16:29N 20°29' W 086°59'0 0.0
2018-Feb-14 15:56N 20°29' W 086°59'0 0.0
2018-Feb-14 15:29N 20°29' W 086°59'0 0.3
2018-Feb-14 15:00N 20°29' W 086°59'5 9.7
2018-Feb-14 14:30N 20°34' W 086°57'26318.1
2018-Feb-14 00:00N 19°36' W 082°24'482 9.9 070 / 191020.010.8 25.022.221.0
2018-Feb-11 23:11N 27°38' W 082°37'315.1
2018-Feb-11 22:57N 27°41' W 082°35'  

Dump ship's entire track history